Time;durP1;ratioP1;P1;durP2;ratioP2;P2;SDS_P1;SDS_P2;PMS_P1;PMS_P2;Temp;Humidity;BMP_temperature;BMP_pressure;BME280_temperature;BME280_humidity;BME280_pressure;Samples;Min_cycle;Max_cycle;Signal;HPM_P1;HPM_P2
2023/07/26 00:03:18;;;;;;;36.13;5.18;;;20.70;99.90;;;;;;5072166;28;20058;-53
2023/07/26 00:06:22;;;;;;;26.80;4.35;;;20.70;99.90;;;;;;5072269;28;20504;-53
2023/07/26 00:13:07;;;;;;;19.63;4.45;;;20.70;99.90;;;;;;5072427;28;20063;-54
2023/07/26 00:16:12;;;;;;;21.00;4.20;;;20.70;99.90;;;;;;5072306;28;20043;-53
2023/07/26 00:19:19;;;;;;;24.23;4.00;;;20.70;99.90;;;;;;5072516;28;20051;-53
2023/07/26 00:23:01;;;;;;;24.65;4.13;;;20.90;99.90;;;;;;5071573;28;20051;-54
2023/07/26 00:26:06;;;;;;;22.20;4.07;;;20.90;99.90;;;;;;5071936;28;20451;-53
2023/07/26 00:29:10;;;;;;;21.05;4.20;;;20.80;99.90;;;;;;5071819;28;20044;-54
2023/07/26 00:32:14;;;;;;;26.92;4.70;;;20.70;99.90;;;;;;5070928;28;20043;-53
2023/07/26 00:35:28;;;;;;;29.48;4.32;;;20.80;99.90;;;;;;5071747;28;20043;-52
2023/07/26 00:38:50;;;;;;;14.10;3.65;;;20.80;99.90;;;;;;5062494;28;20051;-53
2023/07/26 00:41:54;;;;;;;21.63;3.60;;;20.80;99.90;;;;;;5059075;28;20528;-56
2023/07/26 00:44:58;;;;;;;36.83;5.70;;;20.80;99.90;;;;;;5071221;28;20043;-55
2023/07/26 00:48:21;;;;;;;28.17;4.25;;;20.80;99.90;;;;;;5071448;28;20044;-54
2023/07/26 00:55:07;;;;;;;32.20;6.33;;;20.90;99.90;;;;;;5071401;28;20051;-56
2023/07/26 00:58:11;;;;;;;19.10;3.60;;;20.90;99.90;;;;;;5071459;28;20314;-52
2023/07/26 01:01:15;;;;;;;22.55;4.25;;;20.90;99.90;;;;;;5071264;28;20043;-56
2023/07/26 01:08:34;;;;;;;19.13;5.43;;;20.90;99.90;;;;;;5059275;28;20061;-55
2023/07/26 01:11:54;;;;;;;16.80;3.00;;;20.90;99.90;;;;;;5061048;28;20056;-53
2023/07/26 01:15:19;;;;;;;24.55;3.70;;;20.90;99.90;;;;;;5071438;28;20552;-52
2023/07/26 01:18:23;;;;;;;28.67;4.35;;;20.90;99.90;;;;;;5071450;28;20040;-52
2023/07/26 01:21:31;;;;;;;21.48;3.95;;;20.80;99.90;;;;;;5071007;28;20047;-52
2023/07/26 01:24:34;;;;;;;18.52;3.80;;;20.90;99.90;;;;;;5070782;28;20051;-52
2023/07/26 01:27:38;;;;;;;20.83;4.38;;;20.80;99.90;;;;;;5070432;28;20039;-52
2023/07/26 01:31:01;;;;;;;17.20;3.92;;;20.80;99.90;;;;;;5058522;28;20510;-52
2023/07/26 01:37:30;;;;;;;24.88;4.63;;;20.90;99.90;;;;;;5057482;28;20048;-52
2023/07/26 01:40:35;;;;;;;21.13;3.75;;;20.80;99.90;;;;;;5070779;28;20051;-55
2023/07/26 01:43:40;;;;;;;16.00;4.18;;;20.80;99.90;;;;;;5070254;28;20048;-53
2023/07/26 01:46:44;;;;;;;14.55;3.08;;;20.80;99.90;;;;;;5057991;28;20032;-55
2023/07/26 01:50:07;;;;;;;16.08;3.58;;;20.80;99.90;;;;;;5057927;28;20048;-52
2023/07/26 01:53:29;;;;;;;20.13;4.13;;;20.80;99.90;;;;;;5070218;28;20048;-52
2023/07/26 01:56:33;;;;;;;23.13;4.30;;;20.80;99.90;;;;;;5070533;28;20047;-55
2023/07/26 01:59:37;;;;;;;18.02;3.80;;;20.80;99.90;;;;;;5070552;28;20063;-51
2023/07/26 02:02:41;;;;;;;21.98;3.97;;;20.80;99.90;;;;;;5057758;28;20044;-53
2023/07/26 02:09:10;;;;;;;14.15;3.88;;;20.90;99.90;;;;;;5057590;28;20410;-53
2023/07/26 02:12:32;;;;;;;13.75;3.70;;;21.00;99.90;;;;;;5057525;28;20047;-56
2023/07/26 02:15:55;;;;;;;19.17;4.25;;;21.00;99.90;;;;;;5069279;28;20043;-56
2023/07/26 02:19:18;;;;;;;16.15;3.25;;;20.90;99.90;;;;;;5070028;28;20042;-52
2023/07/26 02:22:22;;;;;;;12.68;2.92;;;20.90;99.90;;;;;;5057314;28;20043;-52
2023/07/26 02:25:26;;;;;;;26.95;3.85;;;20.90;99.90;;;;;;5057692;28;20051;-52
2023/07/26 02:29:12;;;;;;;21.40;4.20;;;20.90;99.90;;;;;;5060123;28;20044;-52
2023/07/26 02:32:16;;;;;;;25.38;3.67;;;20.90;99.90;;;;;;5057481;28;20067;-53
2023/07/26 02:35:39;;;;;;;22.35;3.40;;;20.90;99.90;;;;;;5057520;28;20040;-52
2023/07/26 02:38:42;;;;;;;29.45;3.70;;;20.90;99.90;;;;;;5057561;28;20055;-53
2023/07/26 02:45:11;;;;;;;21.75;3.30;;;21.00;99.90;;;;;;5070100;28;20047;-55
2023/07/26 02:48:15;;;;;;;21.83;3.97;;;21.00;99.90;;;;;;5074888;28;20055;-52
2023/07/26 02:51:38;;;;;;;17.27;3.17;;;21.00;99.90;;;;;;5064241;28;20051;-54
2023/07/26 02:54:42;;;;;;;23.88;3.45;;;21.00;99.90;;;;;;5076755;28;20047;-55
2023/07/26 02:58:04;;;;;;;17.13;3.55;;;20.90;99.90;;;;;;5075914;28;20044;-55
2023/07/26 03:01:27;;;;;;;13.20;3.17;;;20.80;99.90;;;;;;5063788;28;20546;-52
2023/07/26 03:04:31;;;;;;;22.02;3.28;;;20.80;99.90;;;;;;5075994;28;20039;-53
2023/07/26 03:07:35;;;;;;;22.33;3.80;;;20.70;99.90;;;;;;5075735;28;20040;-55
2023/07/26 03:10:39;;;;;;;14.98;3.15;;;20.60;99.90;;;;;;5063607;28;20052;-52
2023/07/26 03:14:02;;;;;;;22.38;3.75;;;20.60;99.90;;;;;;5075985;28;20040;-52
2023/07/26 03:17:08;;;;;;;19.27;3.47;;;20.50;99.90;;;;;;5075986;28;20051;-52
2023/07/26 03:20:31;;;;;;;14.55;2.90;;;20.50;99.90;;;;;;5075822;28;20047;-52
2023/07/26 03:23:37;;;;;;;19.83;3.20;;;20.30;99.90;;;;;;5075730;28;20040;-55
2023/07/26 03:27:02;;;;;;;24.25;4.25;;;20.30;99.90;;;;;;5075815;28;20510;-53
2023/07/26 03:30:06;;;;;;;24.38;3.13;;;20.20;99.90;;;;;;5075956;28;20055;-53
2023/07/26 03:33:47;;;;;;;18.40;3.38;;;20.30;99.90;;;;;;5075949;28;20055;-52
2023/07/26 03:36:51;;;;;;;37.67;4.38;;;20.20;99.90;;;;;;5063870;28;20051;-56
2023/07/26 03:39:55;;;;;;;16.88;3.45;;;20.20;99.90;;;;;;5076343;28;20047;-52
2023/07/26 03:43:19;;;;;;;17.58;3.28;;;20.10;99.90;;;;;;5075560;28;20063;-53
2023/07/26 03:46:23;;;;;;;18.48;3.47;;;20.00;99.90;;;;;;5075846;28;20043;-55
2023/07/26 03:49:27;;;;;;;16.35;3.35;;;19.90;99.90;;;;;;5075457;28;20043;-52
2023/07/26 03:52:50;;;;;;;17.70;3.42;;;19.80;99.90;;;;;;5075767;28;20039;-55
2023/07/26 03:55:53;;;;;;;19.27;3.00;;;19.80;99.90;;;;;;5076099;28;20047;-52
2023/07/26 03:58:57;;;;;;;16.98;3.92;;;19.80;99.90;;;;;;5073089;28;20115;-55
2023/07/26 04:02:58;;;;;;;19.80;3.45;;;19.90;99.90;;;;;;5072466;28;20059;-55
2023/07/26 04:06:20;;;;;;;20.73;4.20;;;19.80;99.90;;;;;;5060044;28;20541;-55
2023/07/26 04:09:24;;;;;;;29.13;3.83;;;19.80;99.90;;;;;;5072118;28;20048;-57
2023/07/26 04:12:28;;;;;;;21.83;3.55;;;19.70;99.90;;;;;;5072205;28;20051;-52
2023/07/26 04:15:32;;;;;;;20.67;3.45;;;19.70;99.90;;;;;;5072102;28;20052;-55
2023/07/26 04:18:55;;;;;;;16.38;2.58;;;19.80;99.90;;;;;;5071891;28;20047;-55
2023/07/26 04:21:59;;;;;;;20.23;4.13;;;19.80;99.90;;;;;;5071720;28;20063;-53
2023/07/26 04:25:04;;;;;;;18.38;3.25;;;19.80;99.90;;;;;;5072007;28;20399;-52
2023/07/26 04:28:45;;;;;;;15.02;3.28;;;19.90;99.90;;;;;;5072280;28;20048;-53
2023/07/26 04:31:49;;;;;;;18.17;2.65;;;20.00;99.90;;;;;;5071806;28;20055;-56
2023/07/26 04:35:12;;;;;;;20.92;2.80;;;20.20;99.90;;;;;;5071756;28;20052;-52
2023/07/26 04:38:16;;;;;;;27.40;3.75;;;20.20;99.90;;;;;;5071844;28;20510;-52
2023/07/26 04:41:20;;;;;;;12.73;3.15;;;20.30;99.90;;;;;;5071510;28;20036;-53
2023/07/26 04:44:24;;;;;;;14.85;2.53;;;20.40;99.90;;;;;;5071573;28;20422;-52
2023/07/26 04:47:47;;;;;;;16.10;2.67;;;20.60;99.90;;;;;;5071714;28;20617;-52
2023/07/26 04:50:51;;;;;;;14.05;2.83;;;20.60;99.90;;;;;;5071542;28;20035;-53
2023/07/26 04:53:55;;;;;;;10.63;2.97;;;20.80;99.90;;;;;;5071360;28;20043;-52
2023/07/26 04:56:59;;;;;;;17.40;2.92;;;20.90;99.90;;;;;;5071558;28;20059;-52
2023/07/26 05:00:22;;;;;;;19.00;3.03;;;21.10;99.90;;;;;;5071036;28;20047;-52
2023/07/26 05:03:26;;;;;;;18.23;3.25;;;21.10;99.90;;;;;;5071131;28;20043;-52
2023/07/26 05:06:32;;;;;;;17.75;3.17;;;21.20;99.90;;;;;;5071152;28;20399;-52
2023/07/26 05:09:36;;;;;;;15.63;2.85;;;21.30;99.90;;;;;;5071035;28;20047;-54
2023/07/26 05:12:59;;;;;;;10.25;2.45;;;21.40;99.90;;;;;;5071046;28;20051;-52
2023/07/26 05:16:03;;;;;;;10.48;3.33;;;21.60;99.90;;;;;;5071363;28;20050;-54
2023/07/26 05:19:07;;;;;;;13.75;2.80;;;21.70;99.90;;;;;;5071021;28;20043;-52
2023/07/26 05:22:30;;;;;;;15.65;2.95;;;22.10;99.90;;;;;;5070515;28;20510;-55
2023/07/26 05:25:34;;;;;;;14.77;2.80;;;22.30;99.90;;;;;;5070937;28;20056;-56
2023/07/26 05:28:38;;;;;;;16.92;3.10;;;22.20;99.90;;;;;;5070550;28;20399;-56
2023/07/26 05:32:00;;;;;;;13.90;2.85;;;22.30;99.90;;;;;;5070529;28;20498;-54
2023/07/26 05:35:23;;;;;;;14.00;2.95;;;22.90;99.90;;;;;;5070577;28;20047;-55
2023/07/26 05:42:46;;;;;;;20.75;3.38;;;24.60;99.90;;;;;;5066298;28;20588;-55
2023/07/26 05:49:13;;;;;;;19.08;3.00;;;24.90;99.90;;;;;;5069856;28;20039;-56
2023/07/26 05:52:17;;;;;;;16.40;3.45;;;24.40;99.90;;;;;;5069947;28;20048;-54
2023/07/26 05:55:40;;;;;;;28.58;4.28;;;24.00;99.90;;;;;;5070926;28;20537;-52
2023/07/26 05:58:44;;;;;;;17.45;3.22;;;23.40;99.90;;;;;;5069906;28;20035;-52
2023/07/26 06:02:07;;;;;;;18.17;3.10;;;23.60;99.90;;;;;;5069944;28;20114;-52
2023/07/26 06:05:11;;;;;;;17.52;2.95;;;24.30;99.90;;;;;;5070210;28;20052;-52
2023/07/26 06:08:15;;;;;;;16.80;2.92;;;25.80;99.90;;;;;;5070214;28;20047;-54
2023/07/26 06:11:20;;;;;;;17.60;3.00;;;27.50;99.90;;;;;;5069749;28;20067;-56
2023/07/26 06:14:24;;;;;;;13.25;3.00;;;28.60;99.90;;;;;;5070248;28;20122;-55
2023/07/26 06:17:47;;;;;;;15.85;3.25;;;28.90;99.60;;;;;;5057633;28;20048;-52
2023/07/26 06:20:51;;;;;;;17.92;3.88;;;28.60;99.90;;;;;;5074931;28;20048;-53
2023/07/26 06:23:55;;;;;;;18.08;3.10;;;28.40;99.90;;;;;;5065635;28;20044;-52
2023/07/26 06:26:59;;;;;;;16.30;3.15;;;26.70;99.90;;;;;;5069801;28;20047;-56
2023/07/26 06:30:22;;;;;;;19.20;3.05;;;26.20;99.90;;;;;;5068743;28;20039;-52
2023/07/26 06:33:26;;;;;;;21.33;3.67;;;25.90;99.90;;;;;;5072420;28;20036;-52
2023/07/26 06:39:52;;;;;;;14.68;3.35;;;27.10;99.90;;;;;;5066883;28;20039;-55
2023/07/26 06:46:38;;;;;;;14.73;3.08;;;27.20;99.90;;;;;;5061517;28;20036;-51
2023/07/26 06:49:42;;;;;;;17.05;3.80;;;26.80;99.90;;;;;;5068794;28;20040;-52
2023/07/26 06:53:05;;;;;;;17.88;3.70;;;25.10;99.90;;;;;;5069158;28;20514;-52
2023/07/26 06:56:09;;;;;;;16.23;3.33;;;25.10;99.90;;;;;;5071347;28;20036;-53
2023/07/26 06:59:13;;;;;;;17.45;3.28;;;25.70;99.90;;;;;;5068069;28;20510;-53
2023/07/26 07:05:58;;;;;;;;;;;28.60;99.90;;;;;;5069257;28;20052;-52
2023/07/26 07:09:04;;;;;;;15.98;2.97;;;28.60;99.40;;;;;;5069253;28;19909;-53
2023/07/26 07:13:04;;;;;;;18.73;3.97;;;29.00;99.60;;;;;;5063940;28;20043;-52
2023/07/26 07:16:08;;;;;;;15.13;2.80;;;29.10;98.80;;;;;;5069074;28;20552;-52
2023/07/26 07:19:12;;;;;;;15.82;3.20;;;29.20;98.70;;;;;;5068432;28;20053;-52
2023/07/26 07:22:16;;;;;;;19.20;4.18;;;29.80;98.40;;;;;;5069011;28;20395;-52
2023/07/26 07:25:20;;;;;;;15.02;4.00;;;29.60;97.00;;;;;;5069864;28;20403;-54
2023/07/26 07:28:43;;;;;;;19.20;3.60;;;30.20;96.90;;;;;;5069009;28;20055;-53
2023/07/26 07:31:48;;;;;;;14.65;3.45;;;31.20;96.10;;;;;;5068684;28;20506;-52
2023/07/26 07:34:52;;;;;;;19.48;3.47;;;29.60;96.00;;;;;;5060151;28;20406;-53
2023/07/26 07:37:55;;;;;;;13.50;3.22;;;31.70;95.50;;;;;;5072848;28;20059;-53
2023/07/26 07:40:59;;;;;;;14.38;3.60;;;32.90;94.30;;;;;;5065586;28;20063;-55
2023/07/26 07:44:04;;;;;;;17.42;3.58;;;31.30;93.30;;;;;;5076036;28;20047;-54
2023/07/26 07:47:08;;;;;;;15.88;3.72;;;33.50;92.50;;;;;;5072763;28;20056;-53
2023/07/26 07:50:30;;;;;;;15.63;3.50;;;34.90;91.30;;;;;;5073062;28;20051;-58
2023/07/26 07:53:34;;;;;;;11.32;3.35;;;35.10;90.20;;;;;;5072338;28;20047;-53
2023/07/26 07:56:38;;;;;;;16.17;3.58;;;35.60;90.00;;;;;;5072043;28;20040;-52
2023/07/26 08:00:20;;;;;;;13.50;3.60;;;36.60;88.20;;;;;;5073696;28;20060;-53
2023/07/26 08:03:24;;;;;;;18.20;3.67;;;37.30;87.00;;;;;;5076432;28;20047;-53
2023/07/26 08:06:29;;;;;;;16.00;4.00;;;36.70;86.20;;;;;;5065468;28;20406;-56
2023/07/26 08:09:33;;;;;;;15.63;4.03;;;36.50;86.20;;;;;;5065472;28;20411;-54
2023/07/26 08:12:37;;;;;;;16.92;3.67;;;35.90;86.90;;;;;;5071615;28;20498;-55
2023/07/26 08:15:41;;;;;;;18.25;3.72;;;34.80;86.90;;;;;;5072166;28;20067;-54
2023/07/26 08:18:44;;;;;;;21.73;3.17;;;35.00;87.90;;;;;;5052121;28;20051;-54
2023/07/26 08:21:48;;;;;;;18.60;4.20;;;35.20;88.40;;;;;;5066229;28;20077;-56
2023/07/26 08:24:52;;;;;;;19.02;3.83;;;34.80;88.50;;;;;;5072054;28;20047;-53
2023/07/26 08:27:56;;;;;;;16.77;3.53;;;35.70;87.60;;;;;;5072473;28;20039;-55
2023/07/26 08:31:20;;;;;;;11.25;3.67;;;36.70;85.40;;;;;;5073075;28;20036;-52
2023/07/26 08:34:42;;;;;;;13.32;2.90;;;38.00;85.00;;;;;;5068131;28;20046;-56
2023/07/26 08:37:47;;;;;;;12.50;3.42;;;39.00;81.50;;;;;;5051930;28;20507;-55
2023/07/26 08:41:09;;;;;;;16.73;3.20;;;38.60;81.00;;;;;;5073656;28;20119;-56
2023/07/26 08:44:32;;;;;;;15.80;3.97;;;38.60;82.70;;;;;;5053666;28;20044;-52
2023/07/26 08:47:36;;;;;;;14.25;3.03;;;39.70;79.90;;;;;;5071062;28;20043;-56
2023/07/26 08:51:20;;;;;;;14.15;3.40;;;40.90;79.30;;;;;;5071208;28;20063;-56
2023/07/26 08:54:24;;;;;;;21.35;3.47;;;40.80;77.30;;;;;;5072308;28;20047;-55
2023/07/26 08:57:29;;;;;;;13.75;2.75;;;39.30;78.20;;;;;;5069645;28;20051;-54
2023/07/26 09:07:19;;;;;;;16.50;3.10;;;41.30;74.50;;;;;;5061882;28;20530;-56
2023/07/26 09:10:42;;;;;;;11.98;2.95;;;41.30;76.30;;;;;;5062533;28;20059;-52
2023/07/26 09:13:58;;;;;;;14.65;3.25;;;41.50;75.30;;;;;;5062009;28;20047;-54
2023/07/26 09:17:21;;;;;;;11.88;3.33;;;43.30;73.80;;;;;;5069280;28;20059;-52
2023/07/26 09:20:26;;;;;;;9.98;2.80;;;43.90;71.00;;;;;;5064109;28;20044;-57
2023/07/26 09:27:12;;;;;;;12.63;2.83;;;44.30;70.50;;;;;;5070237;28;20051;-54
2023/07/26 09:30:20;;;;;;;12.10;3.13;;;44.30;69.90;;;;;;5061728;28;20036;-53
2023/07/26 09:33:44;;;;;;;7.20;2.83;;;44.10;68.90;;;;;;5068904;28;20238;-51
2023/07/26 09:36:51;;;;;;;14.32;2.80;;;44.20;69.20;;;;;;5066536;28;20051;-54
2023/07/26 09:39:55;;;;;;;7.18;2.50;;;44.50;68.50;;;;;;5068791;28;20043;-54
2023/07/26 09:43:17;;;;;;;7.95;2.70;;;45.00;67.00;;;;;;5069220;28;20055;-51
2023/07/26 09:46:50;;;;;;;11.15;2.63;;;46.20;66.60;;;;;;5064625;28;20091;-52
2023/07/26 09:50:22;;;;;;;13.32;2.92;;;47.30;65.40;;;;;;5058769;28;20051;-54
2023/07/26 09:53:27;;;;;;;11.20;3.47;;;45.90;65.90;;;;;;5068140;28;20050;-53
2023/07/26 09:56:35;;;;;;;9.07;2.50;;;45.60;65.60;;;;;;5072562;28;20423;-52
2023/07/26 10:00:01;;;;;;;9.32;2.70;;;46.00;65.50;;;;;;5061575;28;20406;-51
2023/07/26 10:06:32;;;;;;;8.65;2.42;;;46.20;64.70;;;;;;5063788;28;20043;-52
2023/07/26 10:09:43;;;;;;;12.15;3.15;;;45.90;64.30;;;;;;5065879;28;20051;-51
2023/07/26 10:12:52;;;;;;;11.43;2.90;;;45.90;64.50;;;;;;5064483;28;20051;-53
2023/07/26 10:15:58;;;;;;;7.38;2.67;;;46.00;64.30;;;;;;5067841;28;20044;-54
2023/07/26 10:19:03;;;;;;;13.02;3.25;;;46.50;63.20;;;;;;5066771;28;20059;-53
2023/07/26 10:22:32;;;;;;;10.23;2.97;;;45.80;63.70;;;;;;5064288;28;20419;-56
2023/07/26 10:25:37;;;;;;;;;;;45.60;63.80;;;;;;5069361;28;20044;-51
2023/07/26 10:28:42;;;;;;;13.55;3.08;;;45.80;63.70;;;;;;5070340;28;20309;-52
2023/07/26 10:31:47;;;;;;;10.35;2.72;;;45.70;63.20;;;;;;5064787;28;20051;-55
2023/07/26 10:34:55;;;;;;;8.35;3.20;;;45.60;63.00;;;;;;5065675;28;20055;-55
2023/07/26 10:38:02;;;;;;;7.72;2.65;;;46.30;63.40;;;;;;5065766;28;20137;-56
2023/07/26 10:41:23;;;;;;;9.00;2.50;;;46.80;62.90;;;;;;5067592;28;20039;-53
2023/07/26 10:44:27;;;;;;;8.98;2.50;;;46.50;61.90;;;;;;5075354;28;20036;-55
2023/07/26 10:47:31;;;;;;;9.45;2.47;;;46.00;62.40;;;;;;5065215;28;20039;-54
2023/07/26 10:50:35;;;;;;;7.55;2.15;;;44.90;62.10;;;;;;5055038;28;20031;-55
2023/07/26 10:53:42;;;;;;;9.05;2.40;;;45.70;62.80;;;;;;5064247;28;20044;-55
2023/07/26 10:57:20;;;;;;;7.10;2.45;;;45.00;61.60;;;;;;5066639;28;20044;-54
2023/07/26 11:00:34;;;;;;;9.05;2.20;;;45.00;60.90;;;;;;5070212;28;20043;-52
2023/07/26 11:03:42;;;;;;;12.15;2.60;;;45.90;60.60;;;;;;5063737;28;20059;-55
2023/07/26 11:06:49;;;;;;;5.68;2.38;;;46.30;61.50;;;;;;5063365;28;20036;-55
2023/07/26 11:10:17;;;;;;;8.27;2.47;;;46.50;60.60;;;;;;5071084;28;20047;-55
2023/07/26 11:13:28;;;;;;;5.47;1.75;;;46.40;60.30;;;;;;5068726;28;20530;-56
2023/07/26 11:16:32;;;;;;;6.30;2.20;;;46.60;59.70;;;;;;5068026;28;20039;-56
2023/07/26 11:19:47;;;;;;;8.30;2.40;;;46.70;59.10;;;;;;5071826;28;20561;-54
2023/07/26 11:22:52;;;;;;;6.45;1.80;;;47.30;58.80;;;;;;5069283;28;20407;-55
2023/07/26 11:25:58;;;;;;;5.00;2.05;;;47.30;57.00;;;;;;5070682;28;20055;-53
2023/07/26 11:29:03;;;;;;;7.03;2.20;;;45.50;59.00;;;;;;5070565;28;20055;-55
2023/07/26 11:32:07;;;;;;;3.97;1.70;;;46.00;59.10;;;;;;5069064;28;20704;-54
2023/07/26 11:35:11;;;;;;;5.95;1.88;;;46.30;59.40;;;;;;5069740;28;20506;-52
2023/07/26 11:38:15;;;;;;;6.28;2.33;;;44.80;58.00;;;;;;5071152;28;20044;-57
2023/07/26 11:41:20;;;;;;;8.82;2.22;;;45.10;59.30;;;;;;5059042;28;20063;-51
2023/07/26 11:44:24;;;;;;;8.02;2.00;;;44.90;58.70;;;;;;5070875;28;20031;-53
2023/07/26 11:47:31;;;;;;;6.45;2.55;;;45.10;59.50;;;;;;5058494;28;20062;-51
2023/07/26 11:50:36;;;;;;;7.05;2.08;;;42.40;57.20;;;;;;5066156;28;20055;-54
2023/07/26 11:53:42;;;;;;;8.68;2.00;;;41.60;60.40;;;;;;5064912;28;20502;-55
2023/07/26 11:56:46;;;;;;;6.80;2.10;;;41.40;61.40;;;;;;5065160;28;20039;-53
2023/07/26 11:59:55;;;;;;;5.60;2.03;;;41.70;58.90;;;;;;5066542;28;20043;-55
2023/07/26 12:03:01;;;;;;;7.18;2.08;;;41.80;60.00;;;;;;5069156;28;20063;-53
2023/07/26 12:06:06;;;;;;;3.88;1.63;;;41.80;60.20;;;;;;5068413;28;20039;-51
2023/07/26 12:09:11;;;;;;;5.45;1.98;;;42.20;59.80;;;;;;5069720;28;20055;-54
2023/07/26 12:12:16;;;;;;;6.85;2.13;;;42.00;58.80;;;;;;5071124;28;20644;-51
2023/07/26 12:15:20;;;;;;;5.22;2.28;;;38.30;57.20;;;;;;5056180;28;20047;-51
2023/07/26 12:18:25;;;;;;;4.60;2.00;;;38.10;61.50;;;;;;5070298;28;20048;-51
2023/07/26 12:21:29;;;;;;;7.43;2.05;;;39.50;61.00;;;;;;5066538;28;20047;-51
2023/07/26 12:24:50;;;;;;;9.38;2.42;;;40.20;61.50;;;;;;5063972;28;20043;-51
2023/07/26 12:27:54;;;;;;;5.00;2.28;;;39.10;61.10;;;;;;5064652;28;20395;-52
2023/07/26 12:30:58;;;;;;;5.32;2.20;;;39.90;62.10;;;;;;5069167;28;20521;-51
2023/07/26 12:34:03;;;;;;;7.78;2.15;;;39.90;60.10;;;;;;5071715;28;20407;-52
2023/07/26 12:37:07;;;;;;;4.75;2.05;;;40.40;61.20;;;;;;5071779;28;20040;-51
2023/07/26 12:40:11;;;;;;;6.53;2.15;;;41.30;61.30;;;;;;5052190;28;20044;-51
2023/07/26 12:43:26;;;;;;;4.82;2.10;;;41.20;61.10;;;;;;5067307;28;20055;-55
2023/07/26 12:46:30;;;;;;;6.40;2.20;;;41.50;59.20;;;;;;5067442;28;20063;-51
2023/07/26 12:49:35;;;;;;;6.38;2.22;;;41.30;60.30;;;;;;5051490;28;20040;-52
2023/07/26 12:52:40;;;;;;;4.40;2.00;;;40.80;61.80;;;;;;5064896;28;20051;-55
2023/07/26 12:55:44;;;;;;;7.38;2.45;;;41.20;61.10;;;;;;5070912;28;20051;-56
2023/07/26 12:58:48;;;;;;;6.85;2.45;;;41.00;60.90;;;;;;5069104;28;20035;-56
2023/07/26 13:01:51;;;;;;;5.85;2.10;;;40.40;61.60;;;;;;5068634;28;20051;-57
2023/07/26 13:04:55;;;;;;;4.75;2.35;;;40.30;62.70;;;;;;5063262;28;20042;-56
2023/07/26 13:08:00;;;;;;;5.28;2.10;;;40.30;62.10;;;;;;5067468;28;20040;-57
2023/07/26 13:11:04;;;;;;;7.18;2.42;;;40.20;63.00;;;;;;5067972;28;20047;-56
2023/07/26 13:14:08;;;;;;;5.13;1.85;;;38.90;62.90;;;;;;5068072;28;20048;-54
2023/07/26 13:17:12;;;;;;;6.60;2.00;;;37.70;64.80;;;;;;5074711;28;20040;-55
2023/07/26 13:20:17;;;;;;;6.18;1.73;;;37.30;65.50;;;;;;5064783;28;20051;-55
2023/07/26 13:23:21;;;;;;;5.35;2.42;;;36.20;66.30;;;;;;5070374;28;20035;-53
2023/07/26 13:26:25;;;;;;;4.93;2.40;;;35.00;67.00;;;;;;5067521;28;20043;-55
2023/07/26 13:29:29;;;;;;;4.15;2.13;;;33.90;68.20;;;;;;5071543;28;20052;-52
2023/07/26 13:32:36;;;;;;;9.63;2.33;;;33.20;69.40;;;;;;5065024;28;20445;-56
2023/07/26 13:35:40;;;;;;;8.75;2.10;;;32.80;69.80;;;;;;5066942;28;20039;-54
2023/07/26 13:38:44;;;;;;;7.93;2.08;;;32.40;70.60;;;;;;5046509;28;20048;-52
2023/07/26 13:41:48;;;;;;;7.90;2.13;;;32.00;70.70;;;;;;5058545;28;20414;-56
2023/07/26 13:44:52;;;;;;;4.55;2.00;;;31.30;71.80;;;;;;5065974;28;20317;-52
2023/07/26 13:47:55;;;;;;;5.30;2.40;;;30.80;71.40;;;;;;5069869;28;20684;-52
2023/07/26 13:51:00;;;;;;;3.80;1.88;;;30.40;71.60;;;;;;5069760;28;20047;-54
2023/07/26 13:54:04;;;;;;;4.68;2.33;;;30.40;72.30;;;;;;5065731;28;20036;-52
2023/07/26 13:57:08;;;;;;;5.90;2.03;;;30.30;73.00;;;;;;5067511;28;20044;-51
2023/07/26 14:00:12;;;;;;;5.10;2.00;;;29.90;73.50;;;;;;5068546;28;20079;-53
2023/07/26 14:03:16;;;;;;;8.93;2.28;;;29.70;74.40;;;;;;5065088;28;20059;-52
2023/07/26 14:06:26;;;;;;;7.15;2.25;;;29.50;75.40;;;;;;5061387;28;20044;-52
2023/07/26 14:09:31;;;;;;;7.88;2.55;;;29.10;76.80;;;;;;5058468;28;20040;-52
2023/07/26 14:12:36;;;;;;;4.30;1.90;;;28.90;79.30;;;;;;5067215;28;20035;-52
2023/07/26 14:15:41;;;;;;;8.90;2.58;;;28.50;80.60;;;;;;5057677;28;20059;-53
2023/07/26 14:18:46;;;;;;;7.53;2.40;;;28.10;85.70;;;;;;5065108;28;20052;-52
2023/07/26 14:21:51;;;;;;;5.88;2.30;;;27.40;90.40;;;;;;5068282;28;20542;-53
2023/07/26 14:24:56;;;;;;;4.93;2.22;;;26.80;93.60;;;;;;5059626;28;20051;-53
2023/07/26 14:28:01;;;;;;;4.45;2.25;;;26.40;96.90;;;;;;5066114;28;20510;-53
2023/07/26 14:31:04;;;;;;;7.30;2.50;;;26.10;98.90;;;;;;5054113;28;20040;-53
2023/07/26 14:34:08;;;;;;;5.60;2.40;;;25.90;99.90;;;;;;5068020;28;20047;-52
2023/07/26 14:37:12;;;;;;;6.25;2.13;;;25.70;99.90;;;;;;5065392;28;20051;-51
2023/07/26 14:40:16;;;;;;;6.00;2.15;;;25.60;99.90;;;;;;5070217;28;20375;-52
2023/07/26 14:43:20;;;;;;;10.93;3.30;;;25.70;99.90;;;;;;5053601;28;20043;-52
2023/07/26 14:46:24;;;;;;;3.95;1.90;;;25.80;99.90;;;;;;5067934;28;20040;-55
2023/07/26 14:49:28;;;;;;;8.23;2.42;;;25.90;99.90;;;;;;5063967;28;20522;-52
2023/07/26 14:52:33;;;;;;;7.60;2.53;;;26.00;99.90;;;;;;5066960;28;20095;-53
2023/07/26 14:55:37;;;;;;;8.60;2.28;;;25.90;99.90;;;;;;5067955;28;20398;-51
2023/07/26 14:58:41;;;;;;;6.07;2.30;;;25.90;99.90;;;;;;5063401;28;20038;-55
2023/07/26 15:01:45;;;;;;;9.13;2.83;;;26.10;99.90;;;;;;5056931;28;20051;-54
2023/07/26 15:04:51;;;;;;;7.65;2.47;;;26.40;99.90;;;;;;5065025;28;20048;-54
2023/07/26 15:07:55;;;;;;;7.43;2.33;;;26.70;99.90;;;;;;5056532;28;20051;-52
2023/07/26 15:11:00;;;;;;;7.82;2.88;;;26.80;99.90;;;;;;5064217;28;20043;-54
2023/07/26 15:14:04;;;;;;;8.35;2.78;;;27.10;99.90;;;;;;5065010;28;20055;-56
2023/07/26 15:17:09;;;;;;;10.73;2.55;;;27.40;99.90;;;;;;5063949;28;20040;-56
2023/07/26 15:20:13;;;;;;;7.00;2.58;;;27.80;99.90;;;;;;5062936;28;20521;-55
2023/07/26 15:23:17;;;;;;;9.10;2.72;;;28.10;99.50;;;;;;5065232;28;20051;-55
2023/07/26 15:26:21;;;;;;;5.75;2.55;;;28.40;99.90;;;;;;5068318;28;20046;-55
2023/07/26 15:29:26;;;;;;;9.80;3.08;;;28.60;99.90;;;;;;5068984;28;20039;-55
2023/07/26 15:32:30;;;;;;;7.20;2.55;;;28.60;99.50;;;;;;5064133;28;20052;-52
2023/07/26 15:35:33;;;;;;;9.52;2.63;;;28.70;99.20;;;;;;5062180;28;20051;-54
2023/07/26 15:38:38;;;;;;;9.00;2.88;;;28.80;99.90;;;;;;5048831;28;20048;-54
2023/07/26 15:41:43;;;;;;;7.80;2.75;;;28.60;99.10;;;;;;5061787;28;20063;-52
2023/07/26 15:44:47;;;;;;;5.60;2.35;;;28.30;98.30;;;;;;5049705;28;20044;-56
2023/07/26 15:47:51;;;;;;;5.53;2.75;;;28.20;98.50;;;;;;5068141;28;20059;-51
2023/07/26 15:50:55;;;;;;;8.10;2.45;;;28.10;98.30;;;;;;5053482;28;20069;-52
2023/07/26 15:53:59;;;;;;;5.45;2.38;;;28.20;98.30;;;;;;5064669;28;20039;-56
2023/07/26 15:57:04;;;;;;;5.40;2.78;;;28.30;97.60;;;;;;5065276;28;20036;-55
2023/07/26 16:00:08;;;;;;;5.63;2.22;;;28.30;97.70;;;;;;5066734;28;20039;-52
2023/07/26 16:03:16;;;;;;;7.53;2.17;;;28.20;97.20;;;;;;5062456;28;20047;-52
2023/07/26 16:06:21;;;;;;;7.32;2.60;;;28.20;97.80;;;;;;5071768;28;20048;-52
2023/07/26 16:09:25;;;;;;;4.72;2.30;;;28.10;98.50;;;;;;5072169;28;20047;-51
2023/07/26 16:12:31;;;;;;;4.40;2.17;;;28.10;97.50;;;;;;5064605;28;20040;-51
2023/07/26 16:15:36;;;;;;;3.28;1.73;;;28.00;95.80;;;;;;5069918;28;20047;-53
2023/07/26 16:18:40;;;;;;;6.65;2.05;;;27.90;96.30;;;;;;5067469;28;20051;-55
2023/07/26 16:21:45;;;;;;;7.55;2.17;;;28.00;96.40;;;;;;5067165;28;20048;-55
2023/07/26 16:24:49;;;;;;;5.82;2.10;;;27.80;96.70;;;;;;5059519;28;20048;-52
2023/07/26 16:27:53;;;;;;;5.07;2.30;;;27.80;96.20;;;;;;5062637;28;20036;-52
2023/07/26 16:30:57;;;;;;;6.82;2.38;;;27.80;96.20;;;;;;5066558;28;20035;-54
2023/07/26 16:34:01;;;;;;;6.22;2.22;;;27.80;96.10;;;;;;5068599;28;20044;-52
2023/07/26 16:37:05;;;;;;;8.00;2.15;;;27.80;95.20;;;;;;5070628;28;20056;-54
2023/07/26 16:40:10;;;;;;;6.95;2.38;;;27.80;95.90;;;;;;5061036;28;20055;-53
2023/07/26 16:43:14;;;;;;;6.47;1.95;;;27.70;96.20;;;;;;5065732;28;20043;-53
2023/07/26 16:46:18;;;;;;;7.40;2.10;;;27.60;96.40;;;;;;5069559;28;20047;-54
2023/07/26 16:49:22;;;;;;;8.05;2.28;;;27.50;95.90;;;;;;5068905;28;20055;-54
2023/07/26 16:52:27;;;;;;;5.43;2.38;;;27.40;96.20;;;;;;5067955;28;20048;-55
2023/07/26 16:55:31;;;;;;;7.55;2.75;;;27.30;96.40;;;;;;5064945;28;20047;-52
2023/07/26 16:58:35;;;;;;;5.63;2.35;;;27.20;96.10;;;;;;5068617;28;20047;-54
2023/07/26 17:01:39;;;;;;;7.47;2.80;;;27.10;96.10;;;;;;5070812;28;20048;-52
2023/07/26 17:04:43;;;;;;;5.85;2.58;;;27.00;96.40;;;;;;5064433;28;20043;-52
2023/07/26 17:07:47;;;;;;;5.82;1.90;;;26.90;96.30;;;;;;5062681;28;20040;-56
2023/07/26 17:10:52;;;;;;;6.80;2.47;;;26.90;96.30;;;;;;5069794;28;20043;-55